sensor_id;sensor_type;location;lat;lon;timestamp;pressure;altitude;pressure_sealevel;temperature;humidity
14120;BME280;7138;49.246;9.100;2023-03-07T00:00:53;97570.13;;;4.97;83.27
14120;BME280;7138;49.246;9.100;2023-03-07T00:03:18;97566.69;;;4.96;83.14
14120;BME280;7138;49.246;9.100;2023-03-07T00:05:45;97564.97;;;4.89;83.28
14120;BME280;7138;49.246;9.100;2023-03-07T00:08:11;97564.16;;;4.95;83.49
14120;BME280;7138;49.246;9.100;2023-03-07T00:10:37;97565.00;;;4.94;83.30
14120;BME280;7138;49.246;9.100;2023-03-07T00:13:04;97562.44;;;4.97;83.24
14120;BME280;7138;49.246;9.100;2023-03-07T00:15:31;97568.38;;;4.93;83.05
14120;BME280;7138;49.246;9.100;2023-03-07T00:17:57;97571.81;;;5.00;82.92
14120;BME280;7138;49.246;9.100;2023-03-07T00:20:23;97567.56;;;4.97;82.90
14120;BME280;7138;49.246;9.100;2023-03-07T00:22:49;97561.56;;;4.92;83.03
14120;BME280;7138;49.246;9.100;2023-03-07T00:25:16;97560.69;;;4.93;83.05
14120;BME280;7138;49.246;9.100;2023-03-07T00:27:42;97559.84;;;4.89;83.49
14120;BME280;7138;49.246;9.100;2023-03-07T00:30:09;97569.22;;;4.84;83.49
14120;BME280;7138;49.246;9.100;2023-03-07T00:32:38;97562.41;;;4.89;83.27
14120;BME280;7138;49.246;9.100;2023-03-07T00:35:05;97567.53;;;4.88;83.16
14120;BME280;7138;49.246;9.100;2023-03-07T00:37:31;97561.53;;;4.87;83.47
14120;BME280;7138;49.246;9.100;2023-03-07T00:39:57;97560.72;;;4.88;83.36
14120;BME280;7138;49.246;9.100;2023-03-07T00:42:23;97559.81;;;4.82;83.48
14120;BME280;7138;49.246;9.100;2023-03-07T00:44:49;97564.91;;;4.73;84.49
14120;BME280;7138;49.246;9.100;2023-03-07T00:47:15;97561.47;;;4.65;84.78
14120;BME280;7138;49.246;9.100;2023-03-07T00:49:42;97573.38;;;4.55;85.94
14120;BME280;7138;49.246;9.100;2023-03-07T00:52:07;97566.47;;;4.42;86.83
14120;BME280;7138;49.246;9.100;2023-03-07T00:54:33;97562.25;;;4.49;87.71
14120;BME280;7138;49.246;9.100;2023-03-07T00:56:59;97565.63;;;4.41;88.42
14120;BME280;7138;49.246;9.100;2023-03-07T00:59:25;97565.53;;;4.23;88.66
14120;BME280;7138;49.246;9.100;2023-03-07T01:01:51;97560.28;;;4.01;89.06
14120;BME280;7138;49.246;9.100;2023-03-07T01:04:16;97561.16;;;4.06;89.82
14120;BME280;7138;49.246;9.100;2023-03-07T01:06:43;97562.88;;;4.08;89.46
14120;BME280;7138;49.246;9.100;2023-03-07T01:09:09;97561.09;;;3.94;89.90
14120;BME280;7138;49.246;9.100;2023-03-07T01:11:36;97556.84;;;3.94;89.57
14120;BME280;7138;49.246;9.100;2023-03-07T01:14:05;97548.38;;;4.06;89.89
14120;BME280;7138;49.246;9.100;2023-03-07T01:16:32;97548.31;;;3.92;90.59
14120;BME280;7138;49.246;9.100;2023-03-07T01:19:02;97534.69;;;3.96;91.03
14120;BME280;7138;49.246;9.100;2023-03-07T01:21:31;97544.94;;;4.02;91.91
14120;BME280;7138;49.246;9.100;2023-03-07T01:23:59;97547.44;;;3.92;92.60
14120;BME280;7138;49.246;9.100;2023-03-07T01:26:27;97546.66;;;4.00;92.47
14120;BME280;7138;49.246;9.100;2023-03-07T01:28:57;97541.50;;;3.94;94.12
14120;BME280;7138;49.246;9.100;2023-03-07T01:31:24;97536.41;;;4.00;93.85
14120;BME280;7138;49.246;9.100;2023-03-07T01:33:52;97529.59;;;4.01;95.15
14120;BME280;7138;49.246;9.100;2023-03-07T01:36:20;97531.25;;;3.91;95.52
14120;BME280;7138;49.246;9.100;2023-03-07T01:38:47;97526.13;;;3.91;95.69
14120;BME280;7138;49.246;9.100;2023-03-07T01:41:16;97527.81;;;3.88;96.66
14120;BME280;7138;49.246;9.100;2023-03-07T01:43:42;97526.13;;;3.88;97.28
14120;BME280;7138;49.246;9.100;2023-03-07T01:46:33;97522.59;;;3.74;99.22
14120;BME280;7138;49.246;9.100;2023-03-07T01:49:07;97522.66;;;3.83;98.75
14120;BME280;7138;49.246;9.100;2023-03-07T01:51:37;97521.75;;;3.75;99.02
14120;BME280;7138;49.246;9.100;2023-03-07T01:54:05;97519.19;;;3.70;99.56
14120;BME280;7138;49.246;9.100;2023-03-07T01:56:36;97514.97;;;3.78;99.66
14120;BME280;7138;49.246;9.100;2023-03-07T01:59:04;97512.28;;;3.62;100.00
14120;BME280;7138;49.246;9.100;2023-03-07T02:01:30;97504.69;;;3.71;100.00
14120;BME280;7138;49.246;9.100;2023-03-07T02:04:02;97491.88;;;3.68;100.00
14120;BME280;7138;49.246;9.100;2023-03-07T02:06:32;97494.44;;;3.66;100.00
14120;BME280;7138;49.246;9.100;2023-03-07T02:09:01;97488.53;;;3.75;100.00
14120;BME280;7138;49.246;9.100;2023-03-07T02:11:28;97471.50;;;3.75;100.00
14120;BME280;7138;49.246;9.100;2023-03-07T02:13:55;97477.47;;;3.73;100.00
14120;BME280;7138;49.246;9.100;2023-03-07T02:16:21;97473.22;;;3.78;100.00
14120;BME280;7138;49.246;9.100;2023-03-07T02:18:49;97467.25;;;3.80;100.00
14120;BME280;7138;49.246;9.100;2023-03-07T02:21:27;97463.81;;;3.74;100.00
14120;BME280;7138;49.246;9.100;2023-03-07T02:24:04;97456.94;;;3.64;100.00
14120;BME280;7138;49.246;9.100;2023-03-07T02:26:42;97462.13;;;3.77;100.00
14120;BME280;7138;49.246;9.100;2023-03-07T02:29:09;97462.16;;;3.79;100.00
14120;BME280;7138;49.246;9.100;2023-03-07T02:31:36;97461.38;;;3.92;100.00
14120;BME280;7138;49.246;9.100;2023-03-07T02:34:02;97457.03;;;3.80;100.00
14120;BME280;7138;49.246;9.100;2023-03-07T02:36:32;97448.47;;;3.71;100.00
14120;BME280;7138;49.246;9.100;2023-03-07T02:39:01;97459.59;;;3.79;100.00
14120;BME280;7138;49.246;9.100;2023-03-07T02:41:33;97463.00;;;3.81;100.00
14120;BME280;7138;49.246;9.100;2023-03-07T02:44:00;97459.59;;;3.76;100.00
14120;BME280;7138;49.246;9.100;2023-03-07T02:46:26;97463.84;;;3.80;100.00
14120;BME280;7138;49.246;9.100;2023-03-07T02:48:52;97438.22;;;3.66;100.00
14120;BME280;7138;49.246;9.100;2023-03-07T02:51:18;97460.31;;;3.55;100.00
14120;BME280;7138;49.246;9.100;2023-03-07T02:53:43;97456.06;;;3.57;100.00
14120;BME280;7138;49.246;9.100;2023-03-07T02:56:10;97458.63;;;3.62;100.00
14120;BME280;7138;49.246;9.100;2023-03-07T02:58:36;97448.34;;;3.53;100.00
14120;BME280;7138;49.246;9.100;2023-03-07T03:01:04;97451.78;;;3.56;100.00
14120;BME280;7138;49.246;9.100;2023-03-07T03:03:29;97447.50;;;3.51;100.00
14120;BME280;7138;49.246;9.100;2023-03-07T03:05:56;97444.09;;;3.49;100.00
14120;BME280;7138;49.246;9.100;2023-03-07T03:08:22;97454.25;;;3.43;100.00
14120;BME280;7138;49.246;9.100;2023-03-07T03:10:51;97450.88;;;3.45;100.00
14120;BME280;7138;49.246;9.100;2023-03-07T03:13:18;97438.94;;;3.44;100.00
14120;BME280;7138;49.246;9.100;2023-03-07T03:15:45;97436.34;;;3.41;100.00
14120;BME280;7138;49.246;9.100;2023-03-07T03:18:12;97436.41;;;3.49;100.00
14120;BME280;7138;49.246;9.100;2023-03-07T03:20:38;97433.75;;;3.35;100.00
14120;BME280;7138;49.246;9.100;2023-03-07T03:23:04;97428.72;;;3.46;100.00
14120;BME280;7138;49.246;9.100;2023-03-07T03:25:29;97438.16;;;3.56;100.00
14120;BME280;7138;49.246;9.100;2023-03-07T03:27:55;97435.47;;;3.38;100.00
14120;BME280;7138;49.246;9.100;2023-03-07T03:30:22;97435.53;;;3.47;100.00
14120;BME280;7138;49.246;9.100;2023-03-07T03:32:47;97430.47;;;3.51;100.00
14120;BME280;7138;49.246;9.100;2023-03-07T03:35:15;97427.06;;;3.49;100.00
14120;BME280;7138;49.246;9.100;2023-03-07T03:37:40;97432.16;;;3.49;100.00
14120;BME280;7138;49.246;9.100;2023-03-07T03:40:08;97436.44;;;3.53;100.00
14120;BME280;7138;49.246;9.100;2023-03-07T03:42:39;97436.47;;;3.58;100.00
14120;BME280;7138;49.246;9.100;2023-03-07T03:45:07;97433.94;;;3.61;100.00
14120;BME280;7138;49.246;9.100;2023-03-07T03:47:33;97433.91;;;3.59;100.00
14120;BME280;7138;49.246;9.100;2023-03-07T03:49:59;97430.53;;;3.63;100.00
14120;BME280;7138;49.246;9.100;2023-03-07T03:52:26;97422.88;;;3.65;100.00
14120;BME280;7138;49.246;9.100;2023-03-07T03:54:52;97425.41;;;3.60;100.00
14120;BME280;7138;49.246;9.100;2023-03-07T03:57:18;97418.63;;;3.64;100.00
14120;BME280;7138;49.246;9.100;2023-03-07T03:59:45;97410.97;;;3.64;100.00
14120;BME280;7138;49.246;9.100;2023-03-07T04:02:11;97413.53;;;3.70;100.00
14120;BME280;7138;49.246;9.100;2023-03-07T04:04:37;97397.34;;;3.69;100.00
14120;BME280;7138;49.246;9.100;2023-03-07T04:07:03;97418.59;;;3.58;100.00
14120;BME280;7138;49.246;9.100;2023-03-07T04:09:31;97410.94;;;3.62;100.00
14120;BME280;7138;49.246;9.100;2023-03-07T04:11:57;97400.75;;;3.70;100.00
14120;BME280;7138;49.246;9.100;2023-03-07T04:14:22;97422.09;;;3.73;100.00
14120;BME280;7138;49.246;9.100;2023-03-07T04:16:48;97406.72;;;3.67;100.00
14120;BME280;7138;49.246;9.100;2023-03-07T04:19:14;97413.53;;;3.70;100.00
14120;BME280;7138;49.246;9.100;2023-03-07T04:21:40;97398.22;;;3.74;100.00
14120;BME280;7138;49.246;9.100;2023-03-07T04:24:07;97399.97;;;3.83;100.00
14120;BME280;7138;49.246;9.100;2023-03-07T04:26:35;97400.81;;;3.83;100.00
14120;BME280;7138;49.246;9.100;2023-03-07T04:29:02;97397.44;;;3.91;100.00
14120;BME280;7138;49.246;9.100;2023-03-07T04:31:29;97394.06;;;3.96;100.00
14120;BME280;7138;49.246;9.100;2023-03-07T04:33:56;97388.94;;;3.99;100.00
14120;BME280;7138;49.246;9.100;2023-03-07T04:36:22;97387.28;;;4.04;99.95
14120;BME280;7138;49.246;9.100;2023-03-07T04:38:49;97388.13;;;4.08;99.17
14120;BME280;7138;49.246;9.100;2023-03-07T04:41:17;97385.59;;;4.09;99.33
14120;BME280;7138;49.246;9.100;2023-03-07T04:43:45;97376.22;;;4.10;98.67
14120;BME280;7138;49.246;9.100;2023-03-07T04:46:13;97373.69;;;4.16;98.47
14120;BME280;7138;49.246;9.100;2023-03-07T04:48:39;97369.44;;;4.19;98.27
14120;BME280;7138;49.246;9.100;2023-03-07T04:51:05;97367.69;;;4.14;98.36
14120;BME280;7138;49.246;9.100;2023-03-07T04:53:31;97371.97;;;4.07;97.88
14120;BME280;7138;49.246;9.100;2023-03-07T04:55:58;97368.56;;;4.19;98.08
14120;BME280;7138;49.246;9.100;2023-03-07T04:58:24;97363.44;;;4.14;97.75
14120;BME280;7138;49.246;9.100;2023-03-07T05:00:51;97371.09;;;4.11;97.66
14120;BME280;7138;49.246;9.100;2023-03-07T05:03:17;97361.75;;;4.13;97.66
14120;BME280;7138;49.246;9.100;2023-03-07T05:05:43;97360.91;;;4.16;97.66
14120;BME280;7138;49.246;9.100;2023-03-07T05:08:09;97351.53;;;4.22;97.03
14120;BME280;7138;49.246;9.100;2023-03-07T05:10:36;97351.50;;;4.18;96.93
14120;BME280;7138;49.246;9.100;2023-03-07T05:13:02;97360.06;;;4.21;97.12
14120;BME280;7138;49.246;9.100;2023-03-07T05:15:29;97351.53;;;4.16;96.23
14120;BME280;7138;49.246;9.100;2023-03-07T05:17:56;97341.28;;;4.24;96.31
14120;BME280;7138;49.246;9.100;2023-03-07T05:20:22;97348.13;;;4.31;96.30
14120;BME280;7138;49.246;9.100;2023-03-07T05:22:48;97340.47;;;4.34;96.12
14120;BME280;7138;49.246;9.100;2023-03-07T05:25:14;97337.06;;;4.39;95.62
14120;BME280;7138;49.246;9.100;2023-03-07T05:27:40;97325.13;;;4.31;95.40
14120;BME280;7138;49.246;9.100;2023-03-07T05:30:08;97334.47;;;4.24;95.22
14120;BME280;7138;49.246;9.100;2023-03-07T05:32:34;97328.53;;;4.25;95.30
14120;BME280;7138;49.246;9.100;2023-03-07T05:35:02;97334.47;;;4.27;95.15
14120;BME280;7138;49.246;9.100;2023-03-07T05:37:28;97330.22;;;4.29;95.63
14120;BME280;7138;49.246;9.100;2023-03-07T05:39:54;97325.97;;;4.25;95.52
14120;BME280;7138;49.246;9.100;2023-03-07T05:42:20;97331.09;;;4.31;95.38
14120;BME280;7138;49.246;9.100;2023-03-07T05:44:46;97329.38;;;4.36;95.19
14120;BME280;7138;49.246;9.100;2023-03-07T05:47:11;97331.94;;;4.43;94.90
14120;BME280;7138;49.246;9.100;2023-03-07T05:49:37;97327.69;;;4.54;94.17
14120;BME280;7138;49.246;9.100;2023-03-07T05:52:05;97318.31;;;4.53;93.34
14120;BME280;7138;49.246;9.100;2023-03-07T05:54:31;97319.13;;;4.44;93.33
14120;BME280;7138;49.246;9.100;2023-03-07T05:56:56;97313.19;;;4.40;93.25
14120;BME280;7138;49.246;9.100;2023-03-07T05:59:22;97312.31;;;4.51;93.49
14120;BME280;7138;49.246;9.100;2023-03-07T06:01:48;97314.88;;;4.51;93.34
14120;BME280;7138;49.246;9.100;2023-03-07T06:04:14;97310.63;;;4.56;93.61
14120;BME280;7138;49.246;9.100;2023-03-07T06:06:40;97299.53;;;4.60;92.98
14120;BME280;7138;49.246;9.100;2023-03-07T06:09:07;97307.19;;;4.48;92.07
14120;BME280;7138;49.246;9.100;2023-03-07T06:11:33;97308.06;;;4.53;91.84
14120;BME280;7138;49.246;9.100;2023-03-07T06:13:59;97303.78;;;4.53;92.33
14120;BME280;7138;49.246;9.100;2023-03-07T06:16:25;97297.81;;;4.45;91.83
14120;BME280;7138;49.246;9.100;2023-03-07T06:18:51;97301.25;;;4.52;92.60
14120;BME280;7138;49.246;9.100;2023-03-07T06:21:17;97297.84;;;4.50;92.71
14120;BME280;7138;49.246;9.100;2023-03-07T06:23:44;97299.53;;;4.51;92.59
14120;BME280;7138;49.246;9.100;2023-03-07T06:26:12;97287.59;;;4.50;92.13
14120;BME280;7138;49.246;9.100;2023-03-07T06:28:38;97285.88;;;4.67;91.86
14120;BME280;7138;49.246;9.100;2023-03-07T06:31:08;97292.72;;;4.66;91.34
14120;BME280;7138;49.246;9.100;2023-03-07T06:33:34;97297.84;;;4.65;91.33
14120;BME280;7138;49.246;9.100;2023-03-07T06:36:04;97302.97;;;4.68;90.86
14120;BME280;7138;49.246;9.100;2023-03-07T06:38:31;97301.25;;;4.73;91.15
14120;BME280;7138;49.246;9.100;2023-03-07T06:40:56;97303.78;;;4.74;90.46
14120;BME280;7138;49.246;9.100;2023-03-07T06:43:24;97296.97;;;4.75;90.09
14120;BME280;7138;49.246;9.100;2023-03-07T06:45:49;97296.13;;;4.73;90.22
14120;BME280;7138;49.246;9.100;2023-03-07T06:48:15;97302.97;;;4.68;89.84
14120;BME280;7138;49.246;9.100;2023-03-07T06:50:42;97309.75;;;4.72;90.89
14120;BME280;7138;49.246;9.100;2023-03-07T06:53:08;97297.84;;;4.74;90.06
14120;BME280;7138;49.246;9.100;2023-03-07T06:55:34;97298.66;;;4.83;89.74
14120;BME280;7138;49.246;9.100;2023-03-07T06:58:00;97300.41;;;4.80;88.96
14120;BME280;7138;49.246;9.100;2023-03-07T07:00:27;97298.66;;;4.85;89.44
14120;BME280;7138;49.246;9.100;2023-03-07T07:02:53;97302.94;;;4.83;88.80
14120;BME280;7138;49.246;9.100;2023-03-07T07:05:19;97304.63;;;4.78;88.53
14120;BME280;7138;49.246;9.100;2023-03-07T07:07:45;97308.88;;;4.89;88.78
14120;BME280;7138;49.246;9.100;2023-03-07T07:10:11;97305.47;;;4.90;88.31
14120;BME280;7138;49.246;9.100;2023-03-07T07:12:37;97301.22;;;4.97;88.44
14120;BME280;7138;49.246;9.100;2023-03-07T07:15:04;97291.78;;;5.08;87.53
14120;BME280;7138;49.246;9.100;2023-03-07T07:17:32;97299.44;;;5.23;87.53
14120;BME280;7138;49.246;9.100;2023-03-07T07:20:00;97291.78;;;5.16;86.87
14120;BME280;7138;49.246;9.100;2023-03-07T07:22:26;97296.03;;;5.18;87.20
14120;BME280;7138;49.246;9.100;2023-03-07T07:24:51;97301.16;;;5.18;86.43
14120;BME280;7138;49.246;9.100;2023-03-07T07:27:17;97286.63;;;5.23;85.68
14120;BME280;7138;49.246;9.100;2023-03-07T07:29:44;97300.31;;;5.18;86.33
14120;BME280;7138;49.246;9.100;2023-03-07T07:32:10;97297.75;;;5.19;86.70
14120;BME280;7138;49.246;9.100;2023-03-07T07:34:37;97289.22;;;5.25;86.69
14120;BME280;7138;49.246;9.100;2023-03-07T07:37:03;97290.91;;;5.29;85.67
14120;BME280;7138;49.246;9.100;2023-03-07T07:39:29;97293.41;;;5.42;85.95
14120;BME280;7138;49.246;9.100;2023-03-07T07:41:55;97286.59;;;5.40;85.86
14120;BME280;7138;49.246;9.100;2023-03-07T07:44:23;97286.56;;;5.49;85.65
14120;BME280;7138;49.246;9.100;2023-03-07T07:46:49;97288.31;;;5.41;84.72
14120;BME280;7138;49.246;9.100;2023-03-07T07:49:15;97301.13;;;5.41;85.46
14120;BME280;7138;49.246;9.100;2023-03-07T07:51:42;97281.44;;;5.49;84.97
14120;BME280;7138;49.246;9.100;2023-03-07T07:54:08;97291.69;;;5.49;84.92
14120;BME280;7138;49.246;9.100;2023-03-07T07:56:34;97290.81;;;5.55;85.19
14120;BME280;7138;49.246;9.100;2023-03-07T07:59:00;97289.94;;;5.54;84.47
14120;BME280;7138;49.246;9.100;2023-03-07T08:01:26;97295.09;;;5.53;84.14
14120;BME280;7138;49.246;9.100;2023-03-07T08:03:51;97279.69;;;5.62;84.79
14120;BME280;7138;49.246;9.100;2023-03-07T08:06:19;97283.06;;;5.67;84.60
14120;BME280;7138;49.246;9.100;2023-03-07T08:08:47;97286.41;;;5.78;84.10
14120;BME280;7138;49.246;9.100;2023-03-07T08:11:13;97281.38;;;5.61;83.37
14120;BME280;7138;49.246;9.100;2023-03-07T08:13:38;97288.19;;;5.67;83.74
14120;BME280;7138;49.246;9.100;2023-03-07T08:16:09;97277.91;;;5.73;84.13
14120;BME280;7138;49.246;9.100;2023-03-07T08:18:35;97273.59;;;5.82;83.27
14120;BME280;7138;49.246;9.100;2023-03-07T08:21:01;97275.28;;;5.88;82.18
14120;BME280;7138;49.246;9.100;2023-03-07T08:23:26;97282.09;;;5.95;82.10
14120;BME280;7138;49.246;9.100;2023-03-07T08:25:53;97280.41;;;5.94;82.33
14120;BME280;7138;49.246;9.100;2023-03-07T08:28:19;97281.22;;;5.97;82.32
14120;BME280;7138;49.246;9.100;2023-03-07T08:30:45;97285.47;;;6.04;82.10
14120;BME280;7138;49.246;9.100;2023-03-07T08:33:11;97281.19;;;6.03;81.71
14120;BME280;7138;49.246;9.100;2023-03-07T08:35:37;97277.75;;;6.06;80.49
14120;BME280;7138;49.246;9.100;2023-03-07T08:38:04;97281.19;;;6.02;80.14
14120;BME280;7138;49.246;9.100;2023-03-07T08:40:30;97272.63;;;6.06;79.60
14120;BME280;7138;49.246;9.100;2023-03-07T08:42:59;97278.66;;;5.97;80.32
14120;BME280;7138;49.246;9.100;2023-03-07T08:45:25;97280.38;;;6.01;80.21
14120;BME280;7138;49.246;9.100;2023-03-07T08:47:51;97276.00;;;6.13;79.36
14120;BME280;7138;49.246;9.100;2023-03-07T08:50:18;97278.53;;;6.17;79.06
14120;BME280;7138;49.246;9.100;2023-03-07T08:52:44;97271.66;;;6.25;79.13
14120;BME280;7138;49.246;9.100;2023-03-07T08:55:10;97273.25;;;6.38;77.89
14120;BME280;7138;49.246;9.100;2023-03-07T08:57:36;97278.34;;;6.41;77.19
14120;BME280;7138;49.246;9.100;2023-03-07T09:00:04;97274.97;;;6.39;77.79
14120;BME280;7138;49.246;9.100;2023-03-07T09:02:33;97276.59;;;6.48;78.10
14120;BME280;7138;49.246;9.100;2023-03-07T09:04:59;97271.47;;;6.48;77.31
14120;BME280;7138;49.246;9.100;2023-03-07T09:07:26;97267.16;;;6.56;75.97
14120;BME280;7138;49.246;9.100;2023-03-07T09:09:52;97262.84;;;6.59;76.09
14120;BME280;7138;49.246;9.100;2023-03-07T09:12:17;97255.88;;;6.71;76.35
14120;BME280;7138;49.246;9.100;2023-03-07T09:14:43;97246.38;;;6.80;76.66
14120;BME280;7138;49.246;9.100;2023-03-07T09:17:10;97247.06;;;6.97;76.39
14120;BME280;7138;49.246;9.100;2023-03-07T09:19:36;97260.75;;;6.98;74.49
14120;BME280;7138;49.246;9.100;2023-03-07T09:22:02;97258.22;;;6.93;75.06
14120;BME280;7138;49.246;9.100;2023-03-07T09:24:29;97259.03;;;7.00;74.65
14120;BME280;7138;49.246;9.100;2023-03-07T09:26:55;97259.00;;;7.03;73.45
14120;BME280;7138;49.246;9.100;2023-03-07T09:29:21;97265.03;;;6.97;73.22
14120;BME280;7138;49.246;9.100;2023-03-07T09:31:49;97253.91;;;6.97;72.28
14120;BME280;7138;49.246;9.100;2023-03-07T09:34:16;97259.06;;;6.94;71.97
14120;BME280;7138;49.246;9.100;2023-03-07T09:36:42;97257.19;;;7.14;74.60
14120;BME280;7138;49.246;9.100;2023-03-07T09:39:08;97238.19;;;7.24;72.45
14120;BME280;7138;49.246;9.100;2023-03-07T09:41:54;97253.00;;;7.04;71.58
14120;BME280;7138;49.246;9.100;2023-03-07T09:44:39;97241.72;;;7.17;71.68
14120;BME280;7138;49.246;9.100;2023-03-07T09:47:32;97245.13;;;7.18;70.80
14120;BME280;7138;49.246;9.100;2023-03-07T09:50:11;97241.66;;;7.22;71.74
14120;BME280;7138;49.246;9.100;2023-03-07T09:52:40;97247.78;;;7.08;70.76
14120;BME280;7138;49.246;9.100;2023-03-07T09:55:12;97247.06;;;6.97;70.27
14120;BME280;7138;49.246;9.100;2023-03-07T09:57:47;97239.34;;;6.97;70.41
14120;BME280;7138;49.246;9.100;2023-03-07T10:00:21;97245.28;;;7.04;70.16
14120;BME280;7138;49.246;9.100;2023-03-07T10:02:54;97234.84;;;7.19;71.41
14120;BME280;7138;49.246;9.100;2023-03-07T10:05:30;97227.88;;;7.29;71.12
14120;BME280;7138;49.246;9.100;2023-03-07T10:07:59;97221.88;;;7.27;71.88
14120;BME280;7138;49.246;9.100;2023-03-07T10:10:35;97230.53;;;7.21;70.27
14120;BME280;7138;49.246;9.100;2023-03-07T10:13:20;97233.09;;;7.21;71.32
14120;BME280;7138;49.246;9.100;2023-03-07T10:15:51;97246.94;;;7.11;70.07
14120;BME280;7138;49.246;9.100;2023-03-07T10:18:40;97242.63;;;7.13;69.21
14120;BME280;7138;49.246;9.100;2023-03-07T10:21:24;97238.50;;;6.97;69.54
14120;BME280;7138;49.246;9.100;2023-03-07T10:24:27;97234.06;;;7.12;69.33
14120;BME280;7138;49.246;9.100;2023-03-07T10:27:01;97230.66;;;7.10;69.91
14120;BME280;7138;49.246;9.100;2023-03-07T10:29:38;97229.91;;;7.01;69.74
14120;BME280;7138;49.246;9.100;2023-03-07T10:32:21;97214.25;;;7.21;71.46
14120;BME280;7138;49.246;9.100;2023-03-07T10:34:55;97219.44;;;7.16;69.88
14120;BME280;7138;49.246;9.100;2023-03-07T10:37:40;97217.63;;;7.24;70.40
14120;BME280;7138;49.246;9.100;2023-03-07T10:40:18;97208.94;;;7.34;70.93
14120;BME280;7138;49.246;9.100;2023-03-07T10:42:46;97215.03;;;7.27;70.17
14120;BME280;7138;49.246;9.100;2023-03-07T10:45:13;97215.81;;;7.35;68.39
14120;BME280;7138;49.246;9.100;2023-03-07T10:47:40;97215.06;;;7.26;68.70
14120;BME280;7138;49.246;9.100;2023-03-07T10:50:26;97205.50;;;7.37;69.73
14120;BME280;7138;49.246;9.100;2023-03-07T10:52:57;97200.47;;;7.29;67.83
14120;BME280;7138;49.246;9.100;2023-03-07T10:55:39;97200.38;;;7.35;68.40
14120;BME280;7138;49.246;9.100;2023-03-07T10:58:19;97193.28;;;7.52;68.76
14120;BME280;7138;49.246;9.100;2023-03-07T11:00:57;97185.38;;;7.66;68.56
14120;BME280;7138;49.246;9.100;2023-03-07T11:03:28;97196.47;;;7.71;67.37
14120;BME280;7138;49.246;9.100;2023-03-07T11:05:56;97190.44;;;7.72;67.68
14120;BME280;7138;49.246;9.100;2023-03-07T11:08:30;97191.41;;;7.63;65.41
14120;BME280;7138;49.246;9.100;2023-03-07T11:10:58;97197.50;;;7.58;65.69
14120;BME280;7138;49.246;9.100;2023-03-07T11:13:25;97194.00;;;7.63;65.30
14120;BME280;7138;49.246;9.100;2023-03-07T11:16:08;97191.25;;;7.76;66.75
14120;BME280;7138;49.246;9.100;2023-03-07T11:18:40;97176.41;;;7.94;66.20
14120;BME280;7138;49.246;9.100;2023-03-07T11:21:28;97188.53;;;7.86;65.59
14120;BME280;7138;49.246;9.100;2023-03-07T11:24:02;97179.28;;;7.75;65.51
14120;BME280;7138;49.246;9.100;2023-03-07T11:26:37;97174.81;;;7.87;64.96
14120;BME280;7138;49.246;9.100;2023-03-07T11:29:06;97185.91;;;7.89;65.88
14120;BME280;7138;49.246;9.100;2023-03-07T11:31:37;97180.78;;;7.88;66.29
14120;BME280;7138;49.246;9.100;2023-03-07T11:34:30;97173.59;;;8.09;66.54
14120;BME280;7138;49.246;9.100;2023-03-07T11:37:15;97163.28;;;8.09;65.31
14120;BME280;7138;49.246;9.100;2023-03-07T11:39:55;97164.19;;;8.07;65.06
14120;BME280;7138;49.246;9.100;2023-03-07T11:42:32;97166.66;;;8.14;65.30
14120;BME280;7138;49.246;9.100;2023-03-07T11:45:03;97165.91;;;8.06;64.79
14120;BME280;7138;49.246;9.100;2023-03-07T11:47:42;97166.91;;;7.99;64.57
14120;BME280;7138;49.246;9.100;2023-03-07T11:50:20;97150.47;;;8.06;65.17
14120;BME280;7138;49.246;9.100;2023-03-07T11:53:23;97156.66;;;7.95;64.53
14120;BME280;7138;49.246;9.100;2023-03-07T11:56:16;97162.03;;;7.81;65.63
14120;BME280;7138;49.246;9.100;2023-03-07T11:59:20;97154.91;;;7.97;65.33
14120;BME280;7138;49.246;9.100;2023-03-07T12:01:53;97153.41;;;7.84;64.47
14120;BME280;7138;49.246;9.100;2023-03-07T12:04:52;97156.66;;;7.95;64.29
14120;BME280;7138;49.246;9.100;2023-03-07T12:08:08;97149.41;;;8.18;65.89
14120;BME280;7138;49.246;9.100;2023-03-07T12:10:54;97139.00;;;8.29;65.84
14120;BME280;7138;49.246;9.100;2023-03-07T12:13:39;97143.88;;;8.42;66.00
14120;BME280;7138;49.246;9.100;2023-03-07T12:16:15;97139.75;;;8.35;65.55
14120;BME280;7138;49.246;9.100;2023-03-07T12:19:18;97143.34;;;8.23;63.42
14120;BME280;7138;49.246;9.100;2023-03-07T12:22:15;97150.50;;;8.05;63.96
14120;BME280;7138;49.246;9.100;2023-03-07T12:25:01;97142.75;;;8.08;65.49
14120;BME280;7138;49.246;9.100;2023-03-07T12:27:35;97136.53;;;8.19;65.16
14120;BME280;7138;49.246;9.100;2023-03-07T12:30:11;97131.44;;;8.15;65.58
14120;BME280;7138;49.246;9.100;2023-03-07T12:32:39;97130.41;;;8.30;66.37
14120;BME280;7138;49.246;9.100;2023-03-07T12:35:17;97124.88;;;8.49;65.05
14120;BME280;7138;49.246;9.100;2023-03-07T12:37:52;97111.16;;;8.49;64.29
14120;BME280;7138;49.246;9.100;2023-03-07T12:40:24;97104.50;;;8.39;64.30
14120;BME280;7138;49.246;9.100;2023-03-07T12:42:57;97113.72;;;8.50;63.74
14120;BME280;7138;49.246;9.100;2023-03-07T12:45:34;97122.63;;;8.31;63.33
14120;BME280;7138;49.246;9.100;2023-03-07T12:48:12;97112.47;;;8.23;62.74
14120;BME280;7138;49.246;9.100;2023-03-07T12:50:53;97114.13;;;8.28;65.07
14120;BME280;7138;49.246;9.100;2023-03-07T12:53:32;97113.31;;;8.22;63.88
14120;BME280;7138;49.246;9.100;2023-03-07T12:56:04;97098.53;;;8.35;65.37
14120;BME280;7138;49.246;9.100;2023-03-07T12:58:41;97089.00;;;8.40;63.52
14120;BME280;7138;49.246;9.100;2023-03-07T13:01:14;97091.69;;;8.34;63.90
14120;BME280;7138;49.246;9.100;2023-03-07T13:03:52;97095.13;;;8.33;64.48
14120;BME280;7138;49.246;9.100;2023-03-07T13:06:22;97097.78;;;8.27;63.44
14120;BME280;7138;49.246;9.100;2023-03-07T13:08:51;97091.91;;;8.19;63.65
14120;BME280;7138;49.246;9.100;2023-03-07T13:11:21;97096.94;;;8.27;64.81
14120;BME280;7138;49.246;9.100;2023-03-07T13:13:53;97091.22;;;8.09;63.51
14120;BME280;7138;49.246;9.100;2023-03-07T13:16:39;97091.09;;;8.17;64.99
14120;BME280;7138;49.246;9.100;2023-03-07T13:19:51;97091.13;;;8.15;64.09
14120;BME280;7138;49.246;9.100;2023-03-07T13:25:55;97084.94;;;8.25;64.46
14120;BME280;7138;49.246;9.100;2023-03-07T13:28:51;97084.81;;;8.35;65.11
14120;BME280;7138;49.246;9.100;2023-03-07T13:31:43;97095.25;;;8.24;63.81
14120;BME280;7138;49.246;9.100;2023-03-07T13:34:44;97086.81;;;8.17;64.79
14120;BME280;7138;49.246;9.100;2023-03-07T13:37:51;97100.75;;;8.04;63.96
14120;BME280;7138;49.246;9.100;2023-03-07T13:40:28;97095.63;;;8.03;64.86